Weather reports worldwide

Advertisment
Cieza, Spain (8363): temperature & dewpoint: 13.01.2021 06:00:00 - 19.01.2021 06:00:00 (CET)Cieza, Spain (8363): wind speed & gusts: 13.01.2021 06:00:00 - 19.01.2021 06:00:00 (CET)Cieza, Spain (8363): wind direction: 13.01.2021 06:00:00 - 19.01.2021 06:00:00 (CET)Cieza, Spain (8363): precipitation: 13.01.2021 06:00:00 - 19.01.2021 06:00:00 (CET)
Date & Time tt [°C] td [°C] ff [km/h] ff [kn] fx [km/h] fx [kn] dd rr [mm]
19.01.2021 06:00:00 - - - - - - - -
19.01.2021 05:00:00 1,9 1,1 9 5 14 7 W 0,0
19.01.2021 04:00:00 1,9 0,9 1 1 11 6 WNW 0,0
19.01.2021 03:00:00 2,6 1,5 6 3 10 5 WNW 0,0
19.01.2021 02:00:00 3,7 2,1 1 1 11 6 WNW 0,0
19.01.2021 01:00:00 4,5 2,9 5 3 6 3 WNW -
19.01.2021 00:00:00 4,3 2,5 1 1 5 3 WNW 0,0
18.01.2021 23:00:00 5,7 3,4 1 1 9 5 ESE 0,0
18.01.2021 22:00:00 6,5 3,6 2 1 8 5 ESE 0,0
18.01.2021 21:00:00 8,3 5,3 6 3 12 6 ESE 0,0
18.01.2021 20:00:00 10,2 5,1 8 5 20 11 SE 0,0
18.01.2021 19:00:00 11,8 4,1 12 7 24 13 SE -
18.01.2021 18:00:00 14,2 4,5 9 5 16 9 ESE 0,0
18.01.2021 17:00:00 16,1 4,8 10 6 16 9 ESE 0,0
18.01.2021 16:00:00 16,9 5,1 8 4 17 9 ESE 0,0
18.01.2021 15:00:00 16,6 4,6 7 4 15 8 SE 0,0
18.01.2021 14:00:00 14,7 3,4 3 2 12 6 WNW 0,0
18.01.2021 13:00:00 12,1 2,3 9 5 15 8 W -
18.01.2021 12:00:00 10,1 0,9 11 6 17 9 W 0,0
18.01.2021 11:00:00 6,7 0,0 9 5 17 9 WNW 0,0
18.01.2021 10:00:00 3,4 -1,7 7 4 12 6 W 0,0
18.01.2021 09:00:00 2,7 -2,5 9 5 13 7 W 0,0
18.01.2021 08:00:00 3,1 -2,7 9 5 15 8 WNW 0,0
18.01.2021 07:00:00 2,0 -3,6 1 1 20 11 WNW -
18.01.2021 06:00:00 4,3 -3,0 13 7 20 11 W 0,0
18.01.2021 05:00:00 4,1 -3,3 16 9 21 11 W 0,0
18.01.2021 04:00:00 3,2 -4,2 0 0 16 9 WSW 0,0
18.01.2021 03:00:00 5,0 -4,5 12 6 24 13 WNW 0,0
18.01.2021 02:00:00 4,6 -4,2 11 6 25 14 W 0,0
18.01.2021 01:00:00 5,7 -4,8 19 10 26 14 W -
18.01.2021 00:00:00 6,7 -5,1 8 4 16 9 W 0,0
17.01.2021 23:00:00 8,2 -4,8 12 6 17 9 W 0,0
17.01.2021 22:00:00 8,8 -5,1 12 6 16 9 W 0,0
17.01.2021 21:00:00 9,5 -5,4 10 6 16 9 W 0,0
17.01.2021 20:00:00 10,7 -5,7 4 2 13 7 W 0,0
17.01.2021 19:00:00 13,5 -6,0 4 2 26 14 NNW -
17.01.2021 18:00:00 16,4 -4,8 11 6 21 11 N 0,0
17.01.2021 17:00:00 18,3 -3,3 11 6 22 12 N 0,0
17.01.2021 16:00:00 19,2 -2,5 11 6 25 13 NNW 0,0
17.01.2021 15:00:00 19,2 -0,3 9 5 19 10 WNW 0,0
17.01.2021 14:00:00 17,2 -0,5 7 4 18 10 W 0,0
17.01.2021 13:00:00 14,8 -0,5 9 5 18 10 WNW -
17.01.2021 12:00:00 10,5 -0,3 12 7 18 10 WNW 0,0
17.01.2021 11:00:00 6,0 0,0 10 6 15 8 WNW 0,0
17.01.2021 10:00:00 2,5 -1,7 11 6 16 9 W 0,0
17.01.2021 09:00:00 0,5 -2,5 10 6 18 10 W 0,0
17.01.2021 08:00:00 -0,4 -3,0 8 4 15 8 W 0,0
17.01.2021 07:00:00 0,6 -2,7 11 6 19 10 W -
17.01.2021 06:00:00 0,2 -2,5 10 6 15 8 W 0,0
17.01.2021 05:00:00 0,1 -2,7 6 3 15 8 WNW 0,0
17.01.2021 04:00:00 1,2 -2,5 9 5 18 10 W 0,0
17.01.2021 03:00:00 0,8 -2,5 7 4 10 5 W 0,0
17.01.2021 02:00:00 1,4 -2,7 8 4 20 11 W 0,0
17.01.2021 01:00:00 2,7 -2,2 14 8 20 11 W -
17.01.2021 00:00:00 2,8 -3,6 5 3 11 6 WSW 0,0
16.01.2021 23:00:00 4,9 -3,6 4 2 13 7 W 0,0
16.01.2021 22:00:00 5,8 -3,6 8 5 12 6 W 0,0
16.01.2021 21:00:00 6,3 -3,6 9 5 15 8 WNW 0,0
16.01.2021 20:00:00 8,3 -3,3 10 5 16 9 W 0,0
16.01.2021 19:00:00 10,8 -2,2 9 5 15 8 WNW -
16.01.2021 18:00:00 12,3 -1,2 3 2 14 7 NW 0,0
16.01.2021 17:00:00 15,1 -0,3 9 5 18 10 WNW 0,0
16.01.2021 16:00:00 14,9 0,0 10 5 17 9 W 0,0
16.01.2021 15:00:00 14,2 0,4 8 4 17 9 WSW 0,0
16.01.2021 14:00:00 13,0 0,4 10 5 18 10 W 0,0
16.01.2021 13:00:00 11,8 0,6 10 5 18 10 W -
16.01.2021 12:00:00 10,1 -0,5 11 6 21 11 W 0,0
16.01.2021 11:00:00 8,5 -1,0 9 5 19 10 W 0,0
16.01.2021 10:00:00 6,8 -2,2 15 8 23 12 WNW 0,0
16.01.2021 09:00:00 4,8 -2,7 10 5 16 9 WNW 0,0
16.01.2021 08:00:00 4,8 -3,0 4 2 14 8 NW 0,0
16.01.2021 07:00:00 6,3 -2,5 7 4 24 13 NW -
16.01.2021 06:00:00 6,8 -2,5 5 3 24 13 NW 0,0
16.01.2021 05:00:00 7,2 -2,2 9 5 20 11 NW 0,0
16.01.2021 04:00:00 7,9 -2,2 8 4 16 9 NNW 0,0
16.01.2021 03:00:00 7,2 -2,2 6 3 19 10 NNW 0,0
16.01.2021 02:00:00 7,6 -2,0 9 5 18 10 NW 0,0
16.01.2021 01:00:00 7,5 -2,0 8 5 18 10 NW -
16.01.2021 00:00:00 6,6 -2,2 6 3 14 8 WNW 0,0
15.01.2021 23:00:00 7,4 -2,2 6 3 20 11 NW 0,0
15.01.2021 22:00:00 7,6 -2,7 7 4 18 10 WNW 0,0
15.01.2021 21:00:00 8,9 -2,2 6 4 19 10 NNW 0,0
15.01.2021 20:00:00 9,0 -2,0 3 2 23 13 NW 0,0
15.01.2021 19:00:00 10,1 -2,0 8 4 19 10 WNW -
15.01.2021 18:00:00 11,7 -1,4 10 5 26 14 W 0,0
15.01.2021 17:00:00 14,0 0,2 11 6 29 16 N 0,0
15.01.2021 16:00:00 15,2 0,6 13 7 25 14 NNW 0,0
15.01.2021 15:00:00 15,6 0,9 10 5 28 15 NNW 0,0
15.01.2021 14:00:00 14,4 1,3 10 6 24 13 NW 0,0
15.01.2021 13:00:00 13,1 2,3 12 7 24 13 NNW -
15.01.2021 12:00:00 12,1 2,9 9 5 18 10 NW 0,0
15.01.2021 11:00:00 9,9 2,7 9 5 19 10 NW 0,0
15.01.2021 10:00:00 6,5 1,3 10 5 17 9 WNW 0,0
15.01.2021 09:00:00 4,6 -0,3 9 5 16 9 WNW 0,0
15.01.2021 08:00:00 4,3 0,0 10 5 19 10 WNW 0,0
15.01.2021 07:00:00 4,7 -0,5 9 5 18 10 WNW -
15.01.2021 06:00:00 4,9 -2,2 6 3 17 9 NW 0,0
15.01.2021 05:00:00 5,7 -3,0 3 1 10 5 NW 0,0
15.01.2021 04:00:00 6,2 -3,3 3 1 16 9 WNW 0,0
15.01.2021 03:00:00 6,6 -3,9 10 5 20 11 WNW 0,0
15.01.2021 02:00:00 7,4 -4,5 9 5 21 11 WNW 0,0
15.01.2021 01:00:00 7,2 -4,5 7 4 16 8 WNW -
15.01.2021 00:00:00 8,3 -4,5 5 3 13 7 NW 0,0
14.01.2021 23:00:00 8,9 -5,1 2 1 14 8 W 0,0
14.01.2021 22:00:00 9,4 -5,4 1 0 14 7 W 0,0
14.01.2021 21:00:00 10,0 -5,1 8 4 17 9 WSW 0,0
14.01.2021 20:00:00 11,6 -5,4 8 4 22 12 NNW 0,0
14.01.2021 19:00:00 12,4 -5,1 8 4 26 14 NNW -
14.01.2021 18:00:00 14,2 -4,2 9 5 23 12 N 0,0
14.01.2021 17:00:00 16,1 -3,6 14 7 27 15 NNE 0,0
14.01.2021 16:00:00 16,9 -2,7 12 6 22 12 NNW 0,0
14.01.2021 15:00:00 17,1 -1,7 11 6 22 12 NNW 0,0
14.01.2021 14:00:00 15,6 -0,7 8 4 16 9 W 0,0
14.01.2021 13:00:00 13,2 -0,5 8 5 13 7 WNW -
14.01.2021 12:00:00 9,3 -0,3 8 4 12 6 WNW 0,0
14.01.2021 11:00:00 5,5 -1,0 8 5 18 10 WNW 0,0
14.01.2021 10:00:00 2,4 -2,0 12 7 18 10 W 0,0
14.01.2021 09:00:00 0,5 -3,0 12 6 18 10 W 0,0
14.01.2021 08:00:00 0,0 -2,7 13 7 18 10 W 0,0
14.01.2021 07:00:00 -0,1 -3,0 12 6 17 9 W -
14.01.2021 06:00:00 -0,1 -3,0 10 5 15 8 W 0,0
14.01.2021 05:00:00 0,6 -2,7 10 5 16 9 W 0,0
14.01.2021 04:00:00 0,7 -2,7 11 6 16 9 W 0,0
14.01.2021 03:00:00 1,6 -2,5 10 6 15 8 W 0,0
14.01.2021 02:00:00 2,1 -2,5 12 6 16 8 W 0,0
14.01.2021 01:00:00 2,7 -2,5 10 5 14 7 W -
14.01.2021 00:00:00 3,3 -2,7 10 5 13 7 W 0,0
13.01.2021 23:00:00 4,2 -3,6 8 5 13 7 W 0,0
13.01.2021 22:00:00 5,2 -3,9 7 4 10 6 W 0,0
13.01.2021 21:00:00 5,6 -4,8 4 2 9 5 WNW 0,0
13.01.2021 20:00:00 7,5 -4,2 8 4 11 6 W 0,0
13.01.2021 19:00:00 7,0 -5,1 1 0 7 4 W -
13.01.2021 18:00:00 10,9 -4,5 1 1 13 7 NW 0,0
13.01.2021 17:00:00 13,8 -3,6 7 4 19 10 NNW 0,0
13.01.2021 16:00:00 14,9 -2,5 9 5 18 10 NNW 0,0
13.01.2021 15:00:00 14,9 -1,2 6 4 13 7 W 0,0
13.01.2021 14:00:00 13,6 -1,7 8 4 13 7 W 0,0
13.01.2021 13:00:00 11,4 -2,2 9 5 16 9 W -
13.01.2021 12:00:00 8,0 -2,7 11 6 16 9 W 0,0
13.01.2021 11:00:00 4,2 -3,0 10 5 14 8 W 0,0
13.01.2021 10:00:00 1,8 -3,3 12 6 18 10 W 0,0
13.01.2021 09:00:00 -0,6 -3,9 11 6 15 8 W 0,0
13.01.2021 08:00:00 -0,8 -4,5 9 5 16 9 WSW 0,0
13.01.2021 07:00:00 -0,1 -3,9 11 6 19 10 W -
13.01.2021 06:00:00 -0,9 -4,2 8 4 23 12 WNW 0,0

tt = temperature
td = dewpoint
ff = wind speed
fx = gusts
dd = wind direction
rr = precipitation

Next stations